Time;durP1;ratioP1;P1;durP2;ratioP2;P2;SDS_P1;SDS_P2;PMS_P1;PMS_P2;Temp;Humidity;BMP_temperature;BMP_pressure;BME280_temperature;BME280_humidity;BME280_pressure;Samples;Min_cycle;Max_cycle;Signal;HPM_P1;HPM_P2
2022/03/31 00:00:17;;;;;;;30.33;14.18;;;8.50;99.90;;;;;;5086824;28;20145;-91
2022/03/31 00:02:44;;;;;;;32.15;15.13;;;8.50;99.90;;;;;;5063626;28;20021;-91
2022/03/31 00:05:09;;;;;;;32.88;15.40;;;8.40;99.90;;;;;;5074453;28;20020;-90
2022/03/31 00:07:35;;;;;;;34.03;15.88;;;8.40;99.90;;;;;;5058678;28;20024;-90
2022/03/31 00:10:01;;;;;;;32.60;15.05;;;8.40;99.90;;;;;;5067004;28;20020;-90
2022/03/31 00:12:26;;;;;;;33.42;15.32;;;8.40;99.90;;;;;;5083821;28;20055;-91
2022/03/31 00:14:52;;;;;;;30.88;14.63;;;8.40;99.90;;;;;;5074555;28;20047;-91
2022/03/31 00:17:18;;;;;;;34.00;15.48;;;8.40;99.90;;;;;;5069740;28;20467;-91
2022/03/31 00:19:44;;;;;;;34.58;15.50;;;8.40;99.90;;;;;;5071429;28;20025;-86
2022/03/31 00:22:09;;;;;;;32.05;14.55;;;8.40;99.90;;;;;;5067285;28;20023;-86
2022/03/31 00:24:35;;;;;;;34.28;14.52;;;8.40;99.90;;;;;;5064081;28;20028;-86
2022/03/31 00:27:01;;;;;;;32.05;15.10;;;8.40;99.90;;;;;;5058246;28;20103;-86
2022/03/31 00:29:27;;;;;;;32.63;14.93;;;8.40;99.90;;;;;;5091649;28;20028;-86
2022/03/31 00:31:54;;;;;;;30.52;15.30;;;8.40;99.90;;;;;;5066214;28;20019;-86
2022/03/31 00:34:20;;;;;;;29.90;13.88;;;8.40;99.90;;;;;;5077896;28;20016;-85
2022/03/31 00:36:46;;;;;;;29.80;13.63;;;8.40;99.90;;;;;;5062571;28;20338;-86
2022/03/31 00:39:32;;;;;;;28.30;14.23;;;8.40;99.90;;;;;;5093954;28;20441;-86
2022/03/31 00:41:59;;;;;;;27.88;13.88;;;8.40;99.90;;;;;;5076936;28;20038;-88
2022/03/31 00:44:25;;;;;;;28.60;14.18;;;8.30;99.90;;;;;;5065181;28;20036;-88
2022/03/31 00:46:53;;;;;;;30.00;13.95;;;8.40;99.90;;;;;;5065809;28;20419;-89
2022/03/31 00:49:20;;;;;;;28.38;13.57;;;8.40;99.90;;;;;;5091714;28;20029;-88
2022/03/31 00:51:51;;;;;;;26.50;13.00;;;8.40;99.90;;;;;;5064765;28;20027;-85
2022/03/31 00:54:20;;;;;;;25.85;12.68;;;8.40;99.90;;;;;;5066075;28;20028;-86
2022/03/31 00:56:48;;;;;;;25.77;12.50;;;8.40;99.90;;;;;;5072497;28;20024;-86
2022/03/31 00:59:15;;;;;;;26.77;12.57;;;8.40;99.90;;;;;;5057658;28;20081;-86
2022/03/31 01:01:43;;;;;;;24.27;12.48;;;8.40;99.90;;;;;;5063434;28;20024;-86
2022/03/31 01:04:09;;;;;;;27.75;12.35;;;8.40;99.90;;;;;;5066794;28;20022;-89
2022/03/31 01:06:35;;;;;;;22.92;11.68;;;8.40;99.90;;;;;;5088371;28;20039;-89
2022/03/31 01:09:05;;;;;;;22.70;10.18;;;8.40;99.90;;;;;;5076896;28;20097;-90
2022/03/31 01:11:32;;;;;;;20.38;10.30;;;8.40;99.90;;;;;;5090398;28;20109;-89
2022/03/31 01:13:58;;;;;;;21.58;10.30;;;8.30;99.90;;;;;;5065744;28;20019;-90
2022/03/31 01:16:24;;;;;;;19.38;9.82;;;8.40;99.90;;;;;;5064091;28;20017;-90
2022/03/31 01:18:51;;;;;;;17.10;9.07;;;8.40;99.90;;;;;;5056189;28;20032;-90
2022/03/31 01:21:17;;;;;;;17.08;9.43;;;8.40;99.90;;;;;;5075654;28;20317;-89
2022/03/31 01:23:46;;;;;;;15.82;8.73;;;8.40;99.90;;;;;;5057586;28;20480;-89
2022/03/31 01:26:13;;;;;;;19.98;10.30;;;8.40;99.90;;;;;;5066782;28;20020;-87
2022/03/31 01:28:43;;;;;;;18.35;10.27;;;8.40;99.90;;;;;;5080310;28;20043;-87
2022/03/31 01:31:10;;;;;;;19.15;9.80;;;8.40;99.90;;;;;;5072699;28;20020;-88
2022/03/31 01:33:36;;;;;;;17.98;9.32;;;8.50;99.90;;;;;;5062582;28;20466;-87
2022/03/31 01:36:06;;;;;;;17.95;9.25;;;8.40;99.90;;;;;;5067257;28;20032;-87
2022/03/31 01:38:31;;;;;;;20.70;9.48;;;8.40;99.90;;;;;;5069753;28;20016;-88
2022/03/31 01:40:58;;;;;;;17.17;9.02;;;8.40;99.90;;;;;;5059717;28;20028;-87
2022/03/31 01:43:24;;;;;;;15.40;8.88;;;8.30;99.90;;;;;;5072371;28;20023;-87
2022/03/31 01:45:52;;;;;;;15.55;8.50;;;8.30;99.90;;;;;;5081668;28;20020;-88
2022/03/31 01:48:18;;;;;;;18.10;9.80;;;8.30;99.90;;;;;;5067968;28;20028;-88
2022/03/31 01:50:43;;;;;;;17.30;9.02;;;8.30;99.90;;;;;;5079290;28;20528;-88
2022/03/31 01:53:09;;;;;;;15.02;8.18;;;8.30;99.90;;;;;;5074588;28;20108;-87
2022/03/31 01:55:35;;;;;;;13.50;7.45;;;8.40;99.90;;;;;;5088956;28;20012;-88
2022/03/31 01:58:01;;;;;;;14.07;8.00;;;8.30;99.90;;;;;;5082615;28;20420;-88
2022/03/31 02:00:27;;;;;;;13.43;7.82;;;8.30;99.90;;;;;;5063745;28;20127;-88
2022/03/31 02:02:52;;;;;;;15.90;7.85;;;8.30;99.90;;;;;;5072394;28;20431;-89
2022/03/31 02:05:18;;;;;;;12.77;7.57;;;8.30;99.90;;;;;;5059116;28;20023;-89
2022/03/31 02:07:43;;;;;;;12.93;7.40;;;8.30;99.90;;;;;;5076020;28;20063;-89
2022/03/31 02:10:12;;;;;;;13.02;7.35;;;8.20;99.90;;;;;;5065473;28;20033;-89
2022/03/31 02:12:38;;;;;;;12.70;7.45;;;8.30;99.90;;;;;;5070009;28;20020;-90
2022/03/31 02:15:05;;;;;;;14.75;7.47;;;8.30;99.90;;;;;;5059168;28;20024;-89
2022/03/31 02:17:31;;;;;;;12.18;7.18;;;8.20;99.90;;;;;;5068464;28;20361;-90
2022/03/31 02:19:57;;;;;;;12.55;7.78;;;8.20;99.90;;;;;;5067371;28;20052;-90
2022/03/31 02:22:22;;;;;;;13.60;7.63;;;8.20;99.90;;;;;;5067424;28;20164;-90
2022/03/31 02:24:48;;;;;;;13.02;7.65;;;8.20;99.90;;;;;;5060265;28;20115;-90
2022/03/31 02:27:14;;;;;;;13.25;7.50;;;8.10;99.90;;;;;;5071930;28;20166;-90
2022/03/31 02:29:39;;;;;;;15.02;7.78;;;8.10;99.90;;;;;;5062206;28;20036;-90
2022/03/31 02:32:07;;;;;;;12.82;7.22;;;8.10;99.90;;;;;;5083926;28;20020;-90
2022/03/31 02:34:33;;;;;;;13.70;7.65;;;8.10;99.90;;;;;;5087337;28;20095;-90
2022/03/31 02:36:59;;;;;;;14.65;7.93;;;8.10;99.90;;;;;;5059241;28;20021;-90
2022/03/31 02:39:28;;;;;;;17.13;8.48;;;8.10;99.90;;;;;;5071063;28;20397;-90
2022/03/31 02:41:54;;;;;;;13.95;8.50;;;8.10;99.90;;;;;;5063507;28;20020;-87
2022/03/31 02:44:20;;;;;;;16.23;9.27;;;8.00;99.90;;;;;;5092936;28;20020;-87
2022/03/31 02:46:46;;;;;;;13.88;8.43;;;8.00;99.90;;;;;;5078165;28;20407;-86
2022/03/31 02:49:11;;;;;;;16.42;9.23;;;8.00;99.90;;;;;;5071720;28;20031;-87
2022/03/31 02:51:37;;;;;;;13.30;7.85;;;8.00;99.90;;;;;;5073315;28;20099;-87
2022/03/31 02:56:47;;;;;;;15.75;8.88;;;7.90;99.90;;;;;;5082128;28;20030;-87
2022/03/31 02:59:12;;;;;;;14.48;8.73;;;7.80;99.90;;;;;;5075782;28;20106;-88
2022/03/31 03:01:38;;;;;;;15.57;8.60;;;7.80;99.90;;;;;;5083398;28;20457;-87
2022/03/31 03:04:04;;;;;;;14.60;8.63;;;7.80;99.90;;;;;;5069570;28;20449;-87
2022/03/31 03:06:30;;;;;;;15.45;7.95;;;7.70;99.90;;;;;;5075228;28;20048;-87
2022/03/31 03:08:55;;;;;;;14.73;8.77;;;7.70;99.90;;;;;;5082667;28;20029;-87
2022/03/31 03:11:22;;;;;;;15.02;8.68;;;7.70;99.90;;;;;;5047778;28;20238;-87
2022/03/31 03:13:48;;;;;;;15.70;8.52;;;7.70;99.90;;;;;;5072937;28;20055;-87
2022/03/31 03:16:14;;;;;;;16.33;8.90;;;7.60;99.90;;;;;;5067900;28;20081;-88
2022/03/31 03:18:40;;;;;;;16.23;9.30;;;7.60;99.90;;;;;;5073979;28;20036;-89
2022/03/31 03:21:07;;;;;;;15.02;8.40;;;7.70;99.90;;;;;;5084017;28;20537;-89
2022/03/31 03:23:38;;;;;;;16.65;8.48;;;7.70;99.90;;;;;;5075624;28;20411;-91
2022/03/31 03:26:05;;;;;;;16.95;8.93;;;7.70;99.90;;;;;;5086376;28;20020;-89
2022/03/31 03:28:32;;;;;;;16.70;9.07;;;7.60;99.90;;;;;;5065793;28;20036;-89
2022/03/31 03:30:57;;;;;;;16.52;8.82;;;7.60;99.90;;;;;;5093583;28;20026;-91
2022/03/31 03:33:24;;;;;;;16.58;8.65;;;7.60;99.90;;;;;;5062809;28;20107;-90
2022/03/31 03:35:49;;;;;;;15.85;9.10;;;7.50;99.90;;;;;;5097586;28;20016;-90
2022/03/31 03:38:16;;;;;;;16.65;9.30;;;7.50;99.90;;;;;;5067623;28;20465;-90
2022/03/31 03:40:42;;;;;;;16.83;8.60;;;7.40;99.90;;;;;;5091513;28;20035;-88
2022/03/31 03:43:09;;;;;;;17.15;9.48;;;7.40;99.90;;;;;;5061606;28;20050;-91
2022/03/31 03:45:36;;;;;;;17.85;9.05;;;7.40;99.90;;;;;;5073308;28;20362;-90
2022/03/31 03:48:03;;;;;;;17.08;9.00;;;7.40;99.90;;;;;;5067263;28;20020;-88
2022/03/31 03:50:29;;;;;;;17.90;9.20;;;7.30;99.90;;;;;;5083775;28;20040;-92
2022/03/31 03:52:55;;;;;;;17.02;9.50;;;7.30;99.90;;;;;;5075518;28;20020;-91
2022/03/31 03:55:22;;;;;;;15.98;9.40;;;7.30;99.90;;;;;;5079348;28;20023;-88
2022/03/31 03:57:48;;;;;;;16.30;8.75;;;7.30;99.90;;;;;;5089240;28;20024;-89
2022/03/31 04:00:14;;;;;;;15.52;8.77;;;7.30;99.90;;;;;;5086890;28;20032;-88
2022/03/31 04:02:41;;;;;;;17.30;9.43;;;7.30;99.90;;;;;;5082061;28;20056;-87
2022/03/31 04:05:07;;;;;;;17.90;9.40;;;7.30;99.90;;;;;;5091611;28;20028;-88
2022/03/31 04:07:33;;;;;;;16.50;9.35;;;7.20;99.90;;;;;;5081039;28;20043;-88
2022/03/31 04:09:59;;;;;;;17.05;9.00;;;7.20;99.90;;;;;;5069238;28;20465;-88
2022/03/31 04:12:24;;;;;;;16.27;9.23;;;7.10;99.90;;;;;;5075236;28;20025;-88
2022/03/31 04:14:50;;;;;;;17.17;9.48;;;7.20;99.90;;;;;;5058560;28;20063;-88
2022/03/31 04:17:16;;;;;;;17.52;8.90;;;7.20;99.90;;;;;;5061364;28;20024;-88
2022/03/31 04:19:43;;;;;;;18.47;8.93;;;7.10;99.90;;;;;;5065877;28;20036;-88
2022/03/31 04:22:09;;;;;;;17.30;8.63;;;7.10;99.90;;;;;;5085210;28;20016;-88
2022/03/31 04:24:35;;;;;;;15.82;8.35;;;7.10;99.90;;;;;;5092981;28;20024;-88
2022/03/31 04:27:00;;;;;;;17.20;9.52;;;7.10;99.90;;;;;;5078713;28;20031;-87
2022/03/31 04:29:26;;;;;;;18.08;9.55;;;7.10;99.90;;;;;;5073301;28;20028;-86
2022/03/31 04:31:52;;;;;;;19.05;9.95;;;7.10;99.90;;;;;;5083605;28;20040;-87
2022/03/31 04:34:19;;;;;;;16.87;9.20;;;7.10;99.90;;;;;;5077612;28;20039;-90
2022/03/31 04:36:45;;;;;;;17.83;9.50;;;7.10;99.90;;;;;;5080801;28;20031;-90
2022/03/31 04:39:12;;;;;;;16.97;9.70;;;7.10;99.90;;;;;;5073848;28;20071;-90
2022/03/31 04:41:40;;;;;;;17.30;9.07;;;7.10;99.90;;;;;;5058167;28;20078;-91
2022/03/31 04:44:06;;;;;;;19.40;9.63;;;7.10;99.90;;;;;;5067516;28;20024;-90
2022/03/31 04:46:33;;;;;;;17.73;9.93;;;7.10;99.90;;;;;;5064373;28;20070;-93
2022/03/31 04:48:59;;;;;;;17.77;9.15;;;7.10;99.90;;;;;;5076358;28;20032;-93
2022/03/31 04:51:25;;;;;;;16.75;9.25;;;7.10;99.90;;;;;;5075803;28;20024;-92
2022/03/31 04:53:51;;;;;;;19.15;10.38;;;7.10;99.90;;;;;;5058443;28;20052;-92
2022/03/31 04:56:17;;;;;;;18.60;10.05;;;7.10;99.90;;;;;;5058095;28;20032;-92
2022/03/31 04:58:43;;;;;;;18.58;9.52;;;7.20;99.90;;;;;;5058243;28;20020;-93
2022/03/31 05:01:10;;;;;;;16.85;9.45;;;7.10;99.90;;;;;;5057628;28;20028;-93
2022/03/31 05:03:37;;;;;;;23.00;10.27;;;7.20;99.90;;;;;;5058189;28;20158;-90
2022/03/31 05:06:04;;;;;;;16.98;9.65;;;7.10;99.90;;;;;;5058057;28;20028;-91
2022/03/31 05:08:30;;;;;;;15.83;9.07;;;7.10;99.90;;;;;;5058093;28;20020;-87
2022/03/31 05:10:56;;;;;;;20.80;10.98;;;7.10;99.90;;;;;;5057954;28;20119;-89
2022/03/31 05:13:21;;;;;;;19.20;9.97;;;7.10;99.90;;;;;;5057759;28;20029;-89
2022/03/31 05:15:47;;;;;;;18.70;10.07;;;7.10;99.90;;;;;;5057321;28;20028;-88
2022/03/31 05:18:13;;;;;;;18.90;10.57;;;7.10;99.90;;;;;;5057283;28;20035;-88
2022/03/31 05:20:39;;;;;;;17.77;9.45;;;7.00;99.90;;;;;;5075220;28;20044;-89
2022/03/31 05:23:05;;;;;;;15.35;9.18;;;7.00;99.90;;;;;;5074793;28;20048;-86
2022/03/31 05:25:31;;;;;;;17.45;9.73;;;7.10;99.90;;;;;;5057519;28;20073;-92
2022/03/31 05:28:00;;;;;;;18.83;9.98;;;7.10;99.90;;;;;;5057643;28;20111;-93
2022/03/31 05:30:26;;;;;;;18.77;9.15;;;7.10;99.90;;;;;;5057091;28;20377;-93
2022/03/31 05:32:53;;;;;;;17.88;9.82;;;7.10;99.90;;;;;;5075250;28;20026;-92
2022/03/31 05:35:20;;;;;;;20.02;10.52;;;7.10;99.90;;;;;;5056934;28;20021;-93
2022/03/31 05:37:46;;;;;;;19.38;9.75;;;7.10;99.90;;;;;;5058154;28;20494;-93
2022/03/31 05:40:13;;;;;;;21.23;10.15;;;7.00;99.90;;;;;;5057381;28;20025;-94
2022/03/31 05:42:40;;;;;;;19.05;9.73;;;7.10;99.90;;;;;;5057679;28;20047;-93
2022/03/31 05:45:10;;;;;;;17.75;9.27;;;7.10;99.90;;;;;;5057675;28;20527;-93
2022/03/31 05:47:37;;;;;;;18.40;9.52;;;7.10;99.90;;;;;;5057251;28;20028;-93
2022/03/31 05:50:04;;;;;;;17.23;9.48;;;7.10;99.90;;;;;;5075028;28;20039;-90
2022/03/31 05:52:30;;;;;;;19.55;9.70;;;7.10;99.90;;;;;;5056825;28;20027;-89
2022/03/31 05:54:56;;;;;;;18.85;9.52;;;7.10;99.90;;;;;;5057070;28;20024;-90
2022/03/31 05:57:22;;;;;;;19.02;10.18;;;7.00;99.90;;;;;;5074329;28;20100;-90
2022/03/31 05:59:49;;;;;;;19.48;9.95;;;7.10;99.90;;;;;;5057562;28;20369;-90
2022/03/31 06:02:15;;;;;;;19.83;9.88;;;7.10;99.90;;;;;;5056844;28;20028;-90
2022/03/31 06:04:41;;;;;;;19.27;10.18;;;7.10;99.90;;;;;;5074657;28;20031;-90
2022/03/31 06:07:08;;;;;;;20.90;10.18;;;7.10;99.90;;;;;;5056604;28;20017;-89
2022/03/31 06:09:34;;;;;;;21.42;10.45;;;7.20;99.90;;;;;;5056602;28;20024;-90
2022/03/31 06:12:00;;;;;;;18.75;9.68;;;7.10;99.90;;;;;;5056997;28;20445;-88
2022/03/31 06:14:26;;;;;;;20.02;10.68;;;7.10;99.90;;;;;;5073925;28;20445;-90
2022/03/31 06:16:52;;;;;;;19.42;9.52;;;7.10;99.90;;;;;;5056680;28;20032;-91
2022/03/31 06:19:18;;;;;;;21.23;10.07;;;7.10;99.90;;;;;;5056157;28;20098;-92
2022/03/31 06:21:44;;;;;;;19.48;10.02;;;7.10;99.90;;;;;;5056524;28;20049;-92
2022/03/31 06:24:10;;;;;;;18.97;9.83;;;7.10;99.90;;;;;;5056339;28;20078;-91
2022/03/31 06:26:36;;;;;;;20.35;10.13;;;7.20;99.90;;;;;;5056430;28;20117;-92
2022/03/31 06:29:04;;;;;;;18.70;10.02;;;7.20;99.90;;;;;;5057035;28;20025;-91
2022/03/31 06:31:30;;;;;;;20.27;9.85;;;7.20;99.90;;;;;;5073740;28;20079;-93
2022/03/31 06:33:56;;;;;;;21.93;9.80;;;7.20;99.90;;;;;;5056576;28;20117;-91
2022/03/31 06:36:21;;;;;;;17.85;9.57;;;7.10;99.90;;;;;;5056231;28;20374;-92
2022/03/31 06:38:47;;;;;;;19.45;9.50;;;7.10;99.90;;;;;;5056316;28;20021;-90
2022/03/31 06:41:17;;;;;;;18.75;9.85;;;7.10;99.90;;;;;;5055999;28;20031;-90
2022/03/31 06:43:46;;;;;;;21.15;9.55;;;7.10;99.90;;;;;;5056305;28;20052;-90
2022/03/31 06:46:12;;;;;;;23.80;10.07;;;7.10;99.90;;;;;;5055620;28;20020;-91
2022/03/31 06:48:41;;;;;;;19.67;9.45;;;7.10;99.90;;;;;;5056493;28;20052;-89
2022/03/31 06:51:08;;;;;;;17.35;9.60;;;7.10;99.90;;;;;;5057401;28;20519;-88
2022/03/31 06:53:37;;;;;;;20.27;9.37;;;7.10;99.90;;;;;;5055761;28;20035;-89
2022/03/31 06:56:08;;;;;;;21.43;10.13;;;7.20;99.90;;;;;;5056402;28;20025;-89
2022/03/31 06:58:34;;;;;;;20.42;9.77;;;7.10;99.90;;;;;;5074001;28;20040;-89
2022/03/31 07:01:00;;;;;;;20.73;9.60;;;7.20;99.90;;;;;;5056273;28;20040;-89
2022/03/31 07:03:27;;;;;;;19.42;9.57;;;7.20;99.90;;;;;;5073351;28;20016;-87
2022/03/31 07:05:54;;;;;;;20.93;10.20;;;7.20;99.90;;;;;;5056112;28;20070;-88
2022/03/31 07:08:19;;;;;;;20.63;9.87;;;7.20;99.90;;;;;;5055794;28;20111;-89
2022/03/31 07:10:45;;;;;;;18.90;9.33;;;7.20;99.90;;;;;;5056133;28;20449;-89
2022/03/31 07:13:11;;;;;;;20.80;10.13;;;7.20;99.90;;;;;;5056311;28;20025;-89
2022/03/31 07:15:37;;;;;;;17.17;9.13;;;7.20;99.90;;;;;;5056197;28;20058;-88
2022/03/31 07:18:04;;;;;;;20.55;9.45;;;7.20;99.90;;;;;;5056057;28;20048;-88
2022/03/31 07:20:34;;;;;;;18.80;9.80;;;7.20;99.90;;;;;;5038542;28;20131;-88
2022/03/31 07:23:00;;;;;;;17.33;10.17;;;7.20;99.90;;;;;;5055939;28;20056;-89
2022/03/31 07:25:27;;;;;;;18.30;10.15;;;7.20;99.90;;;;;;5055362;28;20027;-91
2022/03/31 07:27:53;;;;;;;19.90;10.15;;;7.30;99.90;;;;;;5055793;28;20020;-90
2022/03/31 07:30:20;;;;;;;18.35;9.63;;;7.30;99.90;;;;;;5055305;28;20051;-92
2022/03/31 07:33:06;;;;;;;20.23;9.52;;;7.40;99.90;;;;;;5055582;28;20031;-92
2022/03/31 07:35:34;;;;;;;19.05;9.77;;;7.40;99.90;;;;;;5070772;28;20071;-90
2022/03/31 07:38:03;;;;;;;20.45;10.45;;;7.50;99.90;;;;;;5056151;28;20024;-89
2022/03/31 07:40:29;;;;;;;16.98;9.25;;;7.50;99.90;;;;;;5058647;28;20027;-89
2022/03/31 07:42:55;;;;;;;17.70;9.38;;;7.60;99.90;;;;;;5076404;28;20031;-92
2022/03/31 07:45:22;;;;;;;18.75;9.98;;;7.60;99.90;;;;;;5058541;28;20381;-93
2022/03/31 07:47:48;;;;;;;18.00;10.32;;;7.70;99.90;;;;;;5058817;28;20028;-90
2022/03/31 07:50:16;;;;;;;18.73;10.02;;;7.80;99.90;;;;;;5055904;28;20028;-89
2022/03/31 07:52:42;;;;;;;19.08;10.18;;;7.90;99.90;;;;;;5074385;28;20063;-91
2022/03/31 07:55:10;;;;;;;18.38;9.65;;;7.90;99.90;;;;;;5056615;28;20016;-90
2022/03/31 07:57:38;;;;;;;16.00;9.05;;;7.90;99.90;;;;;;5069991;28;20481;-90
2022/03/31 08:00:05;;;;;;;19.95;9.68;;;8.00;99.90;;;;;;5056429;28;20450;-92
2022/03/31 08:02:31;;;;;;;17.00;9.75;;;8.00;99.90;;;;;;5055852;28;20028;-89
2022/03/31 08:04:57;;;;;;;18.23;10.13;;;8.10;99.90;;;;;;5056427;28;20031;-88
2022/03/31 08:07:22;;;;;;;18.13;10.02;;;8.10;99.90;;;;;;5073575;28;20461;-90
2022/03/31 08:09:48;;;;;;;18.73;9.77;;;8.20;99.90;;;;;;5057775;28;20071;-93
2022/03/31 08:12:14;;;;;;;16.27;9.02;;;8.20;99.90;;;;;;5056646;28;20020;-89
2022/03/31 08:14:40;;;;;;;18.67;9.48;;;8.30;99.90;;;;;;5073985;28;20565;-92
2022/03/31 08:17:06;;;;;;;19.08;10.20;;;8.40;99.90;;;;;;5056723;28;20521;-93
2022/03/31 08:19:32;;;;;;;18.02;9.48;;;8.40;99.90;;;;;;5058171;28;20036;-93
2022/03/31 08:22:02;;;;;;;20.92;9.68;;;8.40;99.90;;;;;;5063939;28;20477;-93
2022/03/31 08:24:31;;;;;;;18.92;9.25;;;8.50;99.90;;;;;;5067509;28;20032;-92
2022/03/31 08:27:00;;;;;;;18.80;9.07;;;8.60;99.90;;;;;;5065648;28;20033;-92
2022/03/31 08:29:26;;;;;;;19.50;9.88;;;8.70;99.90;;;;;;5073139;28;20028;-92
2022/03/31 08:31:52;;;;;;;16.42;9.18;;;8.70;99.90;;;;;;5059916;28;20664;-92
2022/03/31 08:34:18;;;;;;;20.05;10.18;;;8.70;99.90;;;;;;5079058;28;20028;-87
2022/03/31 08:36:44;;;;;;;20.70;9.63;;;8.80;99.90;;;;;;5064124;28;20024;-84
2022/03/31 08:39:09;;;;;;;17.35;9.13;;;8.80;99.90;;;;;;5058119;28;20024;-82
2022/03/31 08:41:35;;;;;;;16.92;9.65;;;8.90;99.90;;;;;;5074459;28;20032;-82
2022/03/31 08:44:01;;;;;;;19.50;10.10;;;9.00;99.90;;;;;;5056696;28;20020;-81
2022/03/31 08:46:30;;;;;;;16.90;9.65;;;9.00;99.90;;;;;;5075607;28;20055;-81
2022/03/31 08:48:57;;;;;;;16.00;8.48;;;8.90;99.90;;;;;;5054287;28;20029;-81
2022/03/31 08:51:23;;;;;;;22.65;9.95;;;8.90;99.90;;;;;;5056491;28;20032;-80
2022/03/31 08:53:49;;;;;;;17.65;9.95;;;8.90;99.90;;;;;;5056400;28;20481;-83
2022/03/31 08:56:15;;;;;;;17.88;9.13;;;8.90;99.90;;;;;;5056691;28;20096;-83
2022/03/31 08:58:43;;;;;;;17.08;9.82;;;8.90;99.90;;;;;;5078452;28;20221;-82
2022/03/31 09:01:14;;;;;;;17.27;8.93;;;8.90;99.90;;;;;;5057714;28;20036;-83
2022/03/31 09:03:41;;;;;;;15.73;9.00;;;8.90;99.90;;;;;;5075879;28;20166;-85
2022/03/31 09:06:09;;;;;;;17.30;9.90;;;8.80;99.90;;;;;;5056667;28;20029;-89
2022/03/31 09:08:35;;;;;;;17.15;9.63;;;8.90;99.90;;;;;;5057900;28;20204;-83
2022/03/31 09:11:03;;;;;;;17.55;9.77;;;9.00;99.90;;;;;;5056824;28;20028;-87
2022/03/31 09:13:31;;;;;;;18.42;9.73;;;8.90;99.90;;;;;;5057796;28;20050;-86
2022/03/31 09:16:02;;;;;;;18.02;9.90;;;9.00;99.90;;;;;;5080003;28;20035;-84
2022/03/31 09:18:30;;;;;;;17.17;9.80;;;9.10;99.90;;;;;;5068894;28;20124;-90
2022/03/31 09:20:59;;;;;;;16.77;10.27;;;9.30;99.90;;;;;;5078199;28;20056;-90
2022/03/31 09:23:47;;;;;;;19.55;9.90;;;9.50;99.90;;;;;;5061863;28;20047;-90
2022/03/31 09:26:15;;;;;;;16.23;8.88;;;9.50;99.90;;;;;;5061565;28;20354;-89
2022/03/31 09:28:44;;;;;;;16.55;9.40;;;9.60;99.90;;;;;;5056648;28;20120;-85
2022/03/31 09:31:10;;;;;;;19.52;9.40;;;9.70;99.90;;;;;;5062838;28;20039;-84
2022/03/31 09:33:38;;;;;;;17.70;9.32;;;9.70;99.90;;;;;;5057976;28;20033;-81
2022/03/31 09:36:14;;;;;;;15.60;8.93;;;9.80;99.90;;;;;;5064946;28;20028;-84
2022/03/31 09:38:45;;;;;;;16.23;8.95;;;9.80;99.90;;;;;;5056659;28;20035;-85
2022/03/31 09:41:21;;;;;;;17.38;9.73;;;9.90;99.90;;;;;;5064172;28;20059;-86
2022/03/31 09:43:48;;;;;;;17.90;9.25;;;9.90;99.90;;;;;;5061003;28;20574;-85
2022/03/31 09:46:21;;;;;;;17.33;9.57;;;9.90;99.90;;;;;;5065945;28;20057;-85
2022/03/31 09:48:48;;;;;;;17.10;9.00;;;9.80;99.90;;;;;;5063585;28;20037;-85
2022/03/31 09:51:14;;;;;;;14.90;8.60;;;9.90;99.90;;;;;;5084729;28;20016;-86
2022/03/31 09:53:41;;;;;;;15.90;8.82;;;9.90;99.90;;;;;;5075420;28;20077;-86
2022/03/31 09:56:07;;;;;;;14.20;8.10;;;9.90;99.90;;;;;;5066777;28;20032;-87
2022/03/31 09:58:37;;;;;;;17.50;9.05;;;10.00;99.90;;;;;;5057949;28;20771;-86
2022/03/31 10:01:04;;;;;;;16.33;8.40;;;10.00;99.90;;;;;;5061736;28;20028;-85
2022/03/31 10:03:30;;;;;;;16.92;8.38;;;10.10;99.90;;;;;;5055242;28;20024;-76
2022/03/31 10:05:57;;;;;;;16.25;8.57;;;10.10;99.90;;;;;;5057377;28;20028;-75
2022/03/31 10:08:24;;;;;;;15.65;8.80;;;10.00;99.90;;;;;;5070551;28;20369;-75
2022/03/31 10:10:50;;;;;;;12.75;7.68;;;10.00;99.90;;;;;;5059961;28;20035;-75
2022/03/31 10:13:25;;;;;;;19.25;8.95;;;10.10;99.90;;;;;;5065934;28;20070;-76
2022/03/31 10:16:03;;;;;;;14.95;7.88;;;10.00;99.90;;;;;;5068457;28;20024;-75
2022/03/31 10:18:29;;;;;;;14.35;8.38;;;10.00;99.90;;;;;;5073763;28;20021;-76
2022/03/31 10:20:57;;;;;;;16.77;8.73;;;10.00;99.90;;;;;;5078461;28;20051;-76
2022/03/31 10:26:08;;;;;;;17.45;8.73;;;10.00;99.90;;;;;;5072398;28;20028;-76
2022/03/31 10:28:34;;;;;;;14.07;8.55;;;9.90;99.90;;;;;;5054815;28;20441;-79
2022/03/31 10:31:02;;;;;;;14.63;7.93;;;9.80;99.90;;;;;;5055698;28;20115;-75
2022/03/31 10:33:34;;;;;;;15.32;8.55;;;9.80;99.90;;;;;;5072659;28;20434;-75
2022/03/31 10:36:10;;;;;;;15.35;8.77;;;9.80;99.90;;;;;;5055351;28;20108;-76
2022/03/31 10:38:37;;;;;;;16.08;7.93;;;9.80;99.90;;;;;;5054661;28;20264;-75
2022/03/31 10:41:13;;;;;;;17.25;8.30;;;9.90;99.90;;;;;;5055329;28;20029;-76
2022/03/31 10:43:47;;;;;;;13.98;7.47;;;10.00;99.90;;;;;;5054931;28;20165;-76
2022/03/31 10:46:20;;;;;;;15.68;8.60;;;10.10;99.90;;;;;;5054757;28;20086;-75
2022/03/31 10:48:58;;;;;;;16.52;8.70;;;10.30;99.90;;;;;;5056195;28;20123;-75
2022/03/31 10:51:36;;;;;;;14.15;8.38;;;10.20;99.90;;;;;;5045123;28;20028;-77
2022/03/31 10:54:04;;;;;;;17.30;8.57;;;10.30;99.90;;;;;;5082422;28;20416;-76
2022/03/31 10:56:31;;;;;;;14.65;7.47;;;10.20;99.90;;;;;;5071351;28;20089;-76
2022/03/31 10:59:02;;;;;;;15.43;8.05;;;10.10;99.90;;;;;;5055597;28;20027;-75
2022/03/31 11:01:34;;;;;;;15.27;8.13;;;10.10;99.90;;;;;;5062063;28;20020;-76
2022/03/31 11:04:01;;;;;;;13.73;7.65;;;10.00;99.90;;;;;;5069412;28;20028;-76
2022/03/31 11:06:28;;;;;;;15.90;7.75;;;10.00;99.90;;;;;;5067675;28;20016;-77
2022/03/31 11:08:54;;;;;;;117.03;45.03;;;10.00;99.90;;;;;;5061216;28;20111;-77
2022/03/31 11:11:29;;;;;;;27.48;14.73;;;10.00;99.90;;;;;;5052627;28;20112;-79
2022/03/31 11:13:58;;;;;;;19.02;10.10;;;10.00;99.90;;;;;;5065188;28;20024;-77
2022/03/31 11:16:38;;;;;;;14.00;7.72;;;9.90;99.90;;;;;;5058179;28;20119;-77
2022/03/31 11:19:05;;;;;;;15.75;8.30;;;9.90;99.90;;;;;;5064419;28;20030;-77
2022/03/31 11:21:35;;;;;;;14.13;7.93;;;9.90;99.90;;;;;;5085457;28;20428;-76
2022/03/31 11:24:01;;;;;;;12.48;7.35;;;9.90;99.90;;;;;;5062127;28;20048;-78
2022/03/31 11:26:29;;;;;;;14.23;7.60;;;9.90;99.90;;;;;;5071661;28;20039;-78
2022/03/31 11:28:55;;;;;;;13.60;7.20;;;9.90;99.90;;;;;;5059719;28;20028;-77
2022/03/31 11:31:22;;;;;;;12.10;6.85;;;10.00;99.90;;;;;;5067255;28;20032;-78
2022/03/31 11:33:49;;;;;;;13.60;6.72;;;10.00;99.90;;;;;;5067150;28;20515;-78
2022/03/31 11:36:18;;;;;;;12.80;7.38;;;9.90;99.90;;;;;;5060339;28;20021;-78
2022/03/31 11:38:57;;;;;;;14.48;7.03;;;9.90;99.90;;;;;;5089750;28;20024;-78
2022/03/31 11:41:23;;;;;;;14.23;7.38;;;10.00;99.90;;;;;;5063076;28;20032;-78
2022/03/31 11:43:49;;;;;;;11.30;6.55;;;10.10;99.90;;;;;;5069215;28;20430;-77
2022/03/31 11:46:16;;;;;;;11.02;6.60;;;10.10;99.90;;;;;;5092653;28;20042;-76
2022/03/31 11:48:44;;;;;;;12.75;7.00;;;10.20;99.90;;;;;;5075647;28;20033;-76
2022/03/31 11:51:09;;;;;;;12.27;6.63;;;10.30;99.90;;;;;;5061039;28;20028;-77
2022/03/31 11:53:40;;;;;;;12.20;6.43;;;10.50;99.90;;;;;;5072345;28;20364;-76
2022/03/31 11:56:26;;;;;;;11.52;6.55;;;10.60;99.90;;;;;;5054877;28;20025;-77
2022/03/31 11:58:55;;;;;;;11.23;6.35;;;10.50;99.90;;;;;;5089370;28;20048;-77
2022/03/31 12:01:31;;;;;;;9.55;5.75;;;10.40;99.90;;;;;;5080870;28;20027;-77
2022/03/31 12:03:57;;;;;;;13.75;6.28;;;10.30;99.90;;;;;;5062121;28;20028;-76
2022/03/31 12:06:23;;;;;;;9.77;5.70;;;10.30;99.90;;;;;;5077173;28;20028;-77
2022/03/31 12:08:48;;;;;;;9.80;6.15;;;10.40;99.90;;;;;;5070822;28;20024;-76
2022/03/31 12:11:15;;;;;;;13.85;6.30;;;10.40;99.90;;;;;;5061431;28;20027;-76
2022/03/31 12:13:52;;;;;;;13.23;6.30;;;10.40;99.90;;;;;;5063161;28;20560;-76
2022/03/31 12:16:20;;;;;;;11.80;6.57;;;10.40;99.90;;;;;;5070634;28;20024;-77
2022/03/31 12:18:56;;;;;;;12.07;6.45;;;10.30;99.90;;;;;;5073300;28;20027;-77
2022/03/31 12:21:24;;;;;;;11.43;6.05;;;10.30;99.90;;;;;;5075127;28;20044;-77
2022/03/31 12:23:50;;;;;;;9.45;5.78;;;10.30;99.90;;;;;;5062631;28;20086;-77
2022/03/31 12:26:19;;;;;;;11.00;6.13;;;10.30;99.90;;;;;;5065511;28;20086;-79
2022/03/31 12:28:46;;;;;;;8.90;5.63;;;10.30;99.90;;;;;;5070640;28;20055;-77
2022/03/31 12:31:26;;;;;;;10.57;5.97;;;10.40;99.90;;;;;;5061162;28;20031;-80
2022/03/31 12:33:52;;;;;;;11.30;6.43;;;10.50;99.90;;;;;;5062732;28;20532;-81
2022/03/31 12:36:24;;;;;;;10.25;5.97;;;10.50;99.90;;;;;;5077572;28;20056;-81
2022/03/31 12:38:52;;;;;;;12.15;6.80;;;10.50;99.90;;;;;;5059895;28;20031;-81
2022/03/31 12:41:29;;;;;;;10.50;5.65;;;10.40;99.90;;;;;;5067241;28;20026;-80
2022/03/31 12:44:15;;;;;;;10.40;5.78;;;10.40;99.90;;;;;;5067425;28;20055;-77
2022/03/31 12:46:54;;;;;;;11.20;5.80;;;10.30;99.90;;;;;;5070004;28;20276;-76
2022/03/31 12:49:22;;;;;;;11.32;6.72;;;10.30;99.90;;;;;;5061217;28;20618;-77